createdAt,value
2016-01-24T00:00:43.881Z,0
2016-01-24T00:01:43.900Z,0
2016-01-24T00:02:43.886Z,0
2016-01-24T00:03:43.880Z,0
2016-01-24T00:04:43.869Z,0
2016-01-24T00:16:35.846Z,0
2016-01-24T00:17:26.052Z,0
2016-01-24T00:18:26.025Z,0
2016-01-24T00:19:26.043Z,0
2016-01-24T00:20:26.030Z,0
2016-01-24T00:21:26.083Z,0
2016-01-24T00:22:26.197Z,0
2016-01-24T00:23:25.997Z,0
2016-01-24T00:24:26.000Z,0
2016-01-24T00:25:26.018Z,0
2016-01-24T00:26:25.989Z,0
2016-01-24T00:27:25.993Z,0
2016-01-24T00:28:25.966Z,0
2016-01-24T00:29:25.985Z,0
2016-01-24T00:30:26.022Z,0
2016-01-24T00:31:26.055Z,0
2016-01-24T00:32:25.964Z,0
2016-01-24T00:33:25.968Z,0
2016-01-24T00:34:25.956Z,0
2016-01-24T00:35:25.943Z,0
2016-01-24T00:36:25.932Z,0
2016-01-24T00:37:25.965Z,0
2016-01-24T00:38:25.954Z,0
2016-01-24T00:39:25.915Z,0
2016-01-24T00:40:26.120Z,0
2016-01-24T00:41:25.903Z,0
2016-01-24T00:42:25.922Z,0
2016-01-24T00:43:25.942Z,0
2016-01-24T00:44:25.913Z,0
2016-01-24T00:45:25.917Z,0
2016-01-24T00:46:25.919Z,0
2016-01-24T00:47:25.879Z,0
2016-01-24T00:48:25.882Z,0
2016-01-24T00:49:25.869Z,0
2016-01-24T00:50:25.919Z,0
2016-01-24T00:51:25.861Z,0
2016-01-24T00:52:25.928Z,0
2016-01-24T00:53:25.852Z,0
2016-01-24T00:54:25.870Z,0
2016-01-24T00:55:25.873Z,0
2016-01-24T00:56:25.830Z,0
2016-01-24T00:57:25.849Z,0
2016-01-24T00:58:25.821Z,0
2016-01-24T00:59:25.824Z,0
2016-01-24T01:00:25.828Z,0
2016-01-24T01:01:26.176Z,0
2016-01-24T01:02:25.804Z,0
2016-01-24T01:03:25.792Z,0
2016-01-24T01:04:25.794Z,0
2016-01-24T01:05:25.861Z,0
2016-01-24T01:06:25.802Z,0
2016-01-24T01:07:25.790Z,0
2016-01-24T01:08:25.840Z,0
2016-01-24T01:09:25.827Z,0
2016-01-24T01:10:25.799Z,0
2016-01-24T01:11:25.790Z,0
2016-01-24T01:12:25.760Z,0
2016-01-24T01:13:25.747Z,0
2016-01-24T01:14:25.735Z,0
2016-01-24T01:15:25.817Z,0
2016-01-24T01:16:25.718Z,0
2016-01-24T01:17:25.536Z,0
2016-01-24T01:18:26.089Z,0
2016-01-24T01:19:25.657Z,0
2016-01-24T01:20:25.682Z,0
2016-01-24T01:21:25.660Z,0
2016-01-24T01:22:25.628Z,0
2016-01-24T01:23:25.613Z,0
2016-01-24T01:24:25.596Z,0
2016-01-24T01:25:25.656Z,0
2016-01-24T01:26:26.001Z,0
2016-01-24T01:27:25.580Z,0
2016-01-24T01:28:25.582Z,0
2016-01-24T01:29:25.582Z,0
2016-01-24T01:30:25.541Z,0
2016-01-24T01:31:25.543Z,0
2016-01-24T01:32:25.576Z,0
2016-01-24T01:33:25.531Z,0
2016-01-24T01:34:25.554Z,0
2016-01-24T01:35:25.524Z,0
2016-01-24T01:36:25.511Z,0
2016-01-24T01:37:25.498Z,0
2016-01-24T01:38:25.501Z,0
2016-01-24T01:39:25.537Z,0
2016-01-24T01:40:25.335Z,0
2016-01-24T01:41:25.573Z,0
2016-01-24T01:42:25.483Z,0
2016-01-24T01:43:25.532Z,0
2016-01-24T01:44:25.504Z,0
2016-01-24T01:45:25.476Z,0
2016-01-24T01:46:25.449Z,0
2016-01-24T01:47:25.530Z,0
2016-01-24T01:48:25.439Z,0
2016-01-24T01:49:25.442Z,0
2016-01-24T01:50:25.512Z,0
2016-01-24T01:51:25.483Z,0
2016-01-24T01:52:25.578Z,0
2016-01-24T01:53:25.459Z,0
2016-01-24T01:54:25.447Z,0
2016-01-24T01:55:25.513Z,0
2016-01-24T01:56:25.406Z,0
2016-01-24T01:57:25.412Z,0
2016-01-24T01:58:25.399Z,0
2016-01-24T01:59:25.698Z,0
2016-01-24T02:00:25.483Z,0
2016-01-24T02:01:25.424Z,0
2016-01-24T02:02:25.490Z,0
2016-01-24T02:03:25.398Z,0
2016-01-24T02:04:25.370Z,0
2016-01-24T02:05:25.343Z,0
2016-01-24T02:06:25.350Z,0
2016-01-24T02:07:25.368Z,0
2016-01-24T02:08:25.339Z,0
2016-01-24T02:09:25.331Z,0
2016-01-24T02:10:25.352Z,0
2016-01-24T02:11:25.324Z,0
2016-01-24T02:12:25.310Z,0
2016-01-24T02:13:25.315Z,0
2016-01-24T02:14:25.318Z,0
2016-01-24T02:15:25.321Z,0
2016-01-24T02:16:25.325Z,0
2016-01-24T02:17:25.296Z,0
2016-01-24T02:18:25.299Z,0
2016-01-24T02:19:25.333Z,0
2016-01-24T02:20:25.292Z,0
2016-01-24T02:21:25.328Z,0
2016-01-24T02:22:25.269Z,0
2016-01-24T02:23:25.274Z,0
2016-01-24T02:24:25.261Z,0
2016-01-24T02:25:25.265Z,0
2016-01-24T02:26:25.283Z,0
2016-01-24T02:27:25.254Z,0
2016-01-24T02:28:25.228Z,0
2016-01-24T02:29:25.232Z,0
2016-01-24T02:30:25.219Z,0
2016-01-24T02:31:25.267Z,0
2016-01-24T02:32:25.225Z,0
2016-01-24T02:33:25.259Z,0
2016-01-24T02:34:25.200Z,0
2016-01-24T02:35:25.249Z,0
2016-01-24T02:36:25.191Z,0
2016-01-24T02:37:25.178Z,0
2016-01-24T02:38:25.197Z,0
2016-01-24T02:39:25.153Z,0
2016-01-24T02:40:25.374Z,0
2016-01-24T02:41:25.143Z,0
2016-01-24T02:42:25.177Z,0
2016-01-24T02:43:25.133Z,0
2016-01-24T02:44:25.136Z,0
2016-01-24T02:45:25.155Z,0
2016-01-24T02:46:25.128Z,0
2016-01-24T02:47:25.117Z,0
2016-01-24T02:48:25.089Z,0
2016-01-24T02:49:25.232Z,0
2016-01-24T02:50:25.158Z,0
2016-01-24T02:51:25.099Z,0
2016-01-24T02:52:25.117Z,0
2016-01-24T02:53:25.086Z,0
2016-01-24T02:54:25.073Z,0
2016-01-24T02:55:25.154Z,0
2016-01-24T02:56:25.173Z,0
2016-01-24T02:57:25.050Z,0
2016-01-24T02:58:25.053Z,0
2016-01-24T02:59:25.040Z,0
2016-01-24T03:00:24.904Z,0
2016-01-24T03:01:25.048Z,0
2016-01-24T03:02:25.035Z,0
2016-01-24T03:03:25.022Z,0
2016-01-24T03:04:25.025Z,0
2016-01-24T03:05:25.015Z,0
2016-01-24T03:06:25.001Z,0
2016-01-24T03:07:24.990Z,0
2016-01-24T03:08:24.977Z,0
2016-01-24T03:09:25.014Z,0
2016-01-24T03:10:25.016Z,0
2016-01-24T03:11:24.974Z,0
2016-01-24T03:12:24.960Z,0
2016-01-24T03:13:24.963Z,0
2016-01-24T03:14:24.967Z,0
2016-01-24T03:15:25.018Z,0
2016-01-24T03:16:24.943Z,0
2016-01-24T03:17:24.929Z,0
2016-01-24T03:18:24.979Z,0
2016-01-24T03:19:24.969Z,0
2016-01-24T03:20:25.002Z,0
2016-01-24T03:21:24.942Z,0
2016-01-24T03:22:24.883Z,0
2016-01-24T03:23:24.902Z,0
2016-01-24T03:24:24.739Z,0
2016-01-24T03:25:24.929Z,0
2016-01-24T03:26:24.901Z,0
2016-01-24T03:27:24.887Z,0
2016-01-24T03:28:24.875Z,0
2016-01-24T03:29:24.862Z,0
2016-01-24T03:30:24.896Z,0
2016-01-24T03:31:24.868Z,0
2016-01-24T03:32:24.699Z,0
2016-01-24T03:33:24.845Z,0
2016-01-24T03:34:24.849Z,0
2016-01-24T03:35:24.898Z,0
2016-01-24T03:36:24.822Z,0
2016-01-24T03:37:24.889Z,0
2016-01-24T03:38:24.815Z,0
2016-01-24T03:39:24.818Z,0
2016-01-24T03:40:24.835Z,0
2016-01-24T03:41:24.809Z,0
2016-01-24T03:42:24.909Z,0
2016-01-24T03:43:24.786Z,0
2016-01-24T03:44:24.902Z,0
2016-01-24T03:45:24.749Z,0
2016-01-24T03:46:24.783Z,0
2016-01-24T03:47:24.756Z,0
2016-01-24T03:48:24.743Z,0
2016-01-24T03:49:24.731Z,0
2016-01-24T03:50:24.749Z,0
2016-01-24T03:51:24.722Z,0
2016-01-24T03:52:24.725Z,0
2016-01-24T03:53:24.770Z,0
2016-01-24T03:54:24.696Z,0
2016-01-24T03:55:24.749Z,0
2016-01-24T03:56:24.691Z,0
2016-01-24T03:57:24.678Z,0
2016-01-24T03:58:24.714Z,0
2016-01-24T03:59:24.701Z,0
2016-01-24T04:00:24.673Z,0
2016-01-24T04:01:24.676Z,0
2016-01-24T04:02:24.979Z,0
2016-01-24T04:03:24.638Z,0
2016-01-24T04:04:24.657Z,0
2016-01-24T04:05:24.644Z,0
2016-01-24T04:06:24.616Z,0
2016-01-24T04:07:24.604Z,0
2016-01-24T04:08:24.607Z,0
2016-01-24T04:09:24.611Z,0
2016-01-24T04:10:24.646Z,0
2016-01-24T04:11:25.055Z,0
2016-01-24T04:12:24.574Z,0
2016-01-24T04:13:24.577Z,0
2016-01-24T04:14:24.565Z,0
2016-01-24T04:15:24.598Z,0
2016-01-24T04:16:24.540Z,0
2016-01-24T04:17:24.574Z,0
2016-01-24T04:18:24.545Z,0
2016-01-24T04:19:24.548Z,0
2016-01-24T04:20:24.536Z,0
2016-01-24T04:21:24.517Z,0
2016-01-24T04:22:24.534Z,0
2016-01-24T04:23:24.507Z,0
2016-01-24T04:24:24.480Z,0
2016-01-24T04:25:24.608Z,0
2016-01-24T04:26:24.486Z,0
2016-01-24T04:27:24.300Z,0
2016-01-24T04:28:24.525Z,0
2016-01-24T04:29:24.465Z,0
2016-01-24T04:30:24.515Z,0
2016-01-24T04:31:24.486Z,0
2016-01-24T04:32:24.426Z,0
2016-01-24T04:33:24.429Z,0
2016-01-24T04:34:24.432Z,0
2016-01-24T04:35:24.452Z,0
2016-01-24T04:36:24.424Z,0
2016-01-24T04:37:24.441Z,0
2016-01-24T04:38:24.417Z,0
2016-01-24T04:39:24.376Z,0
2016-01-24T04:40:24.488Z,0
2016-01-24T04:41:24.381Z,0
2016-01-24T04:42:24.369Z,0
2016-01-24T04:43:24.188Z,0
2016-01-24T04:44:24.363Z,0
2016-01-24T04:45:24.398Z,0
2016-01-24T04:46:24.354Z,0
2016-01-24T04:47:24.342Z,0
2016-01-24T04:48:24.329Z,0
2016-01-24T04:49:24.333Z,0
2016-01-24T04:50:24.388Z,0
2016-01-24T04:51:24.298Z,0
2016-01-24T04:52:24.192Z,0
2016-01-24T04:53:24.306Z,0
2016-01-24T04:54:24.276Z,0
2016-01-24T04:55:24.373Z,0
2016-01-24T04:56:23.991Z,0
2016-01-24T04:57:23.970Z,0
2016-01-24T04:58:24.527Z,0
2016-01-24T04:59:25.153Z,0
2016-01-24T05:00:24.249Z,0
2016-01-24T05:01:24.251Z,0
2016-01-24T05:02:24.239Z,0
2016-01-24T05:03:24.242Z,0
2016-01-24T05:04:24.151Z,0
2016-01-24T05:05:24.217Z,0
2016-01-24T05:06:24.235Z,0
2016-01-24T05:07:24.223Z,0
2016-01-24T05:08:24.211Z,0
2016-01-24T05:09:24.214Z,0
2016-01-24T05:10:24.326Z,0
2016-01-24T05:11:24.174Z,0
2016-01-24T05:12:24.255Z,0
2016-01-24T05:13:24.228Z,0
2016-01-24T05:14:24.199Z,0
2016-01-24T05:15:24.187Z,0
2016-01-24T05:16:24.144Z,0
2016-01-24T05:17:24.133Z,0
2016-01-24T05:18:24.152Z,0
2016-01-24T05:19:24.136Z,0
2016-01-24T05:20:24.124Z,0
2016-01-24T05:21:24.113Z,0
2016-01-24T05:22:24.116Z,0
2016-01-24T05:23:24.134Z,0
2016-01-24T05:24:24.090Z,0
2016-01-24T05:25:24.203Z,0
2016-01-24T05:26:24.159Z,0
2016-01-24T05:27:24.070Z,0
2016-01-24T05:28:24.087Z,0
2016-01-24T05:29:24.044Z,0
2016-01-24T05:30:24.468Z,0
2016-01-24T05:31:24.050Z,0
2016-01-24T05:32:24.162Z,0
2016-01-24T05:33:24.025Z,0
2016-01-24T05:34:24.043Z,0
2016-01-24T05:35:24.047Z,0
2016-01-24T05:36:24.034Z,0
2016-01-24T05:37:24.006Z,0
2016-01-24T05:38:24.040Z,0
2016-01-24T05:39:24.013Z,0
2016-01-24T05:40:24.049Z,0
2016-01-24T05:41:23.974Z,0
2016-01-24T05:42:23.977Z,0
2016-01-24T05:43:23.994Z,0
2016-01-24T05:44:23.967Z,0
2016-01-24T05:45:24.020Z,0
2016-01-24T05:46:23.960Z,0
2016-01-24T05:47:23.916Z,0
2016-01-24T05:48:23.985Z,0
2016-01-24T05:49:23.911Z,0
2016-01-24T05:50:23.992Z,0
2016-01-24T05:51:23.978Z,0
2016-01-24T05:52:23.903Z,0
2016-01-24T05:53:23.876Z,0
2016-01-24T05:54:23.880Z,0
2016-01-24T05:55:23.945Z,0
2016-01-24T05:56:23.885Z,0
2016-01-24T05:57:24.263Z,0
2016-01-24T05:58:24.110Z,0
2016-01-24T05:59:23.894Z,0
2016-01-24T06:00:23.882Z,0
2016-01-24T06:01:23.885Z,0
2016-01-24T06:02:23.840Z,0
2016-01-24T06:03:23.844Z,0
2016-01-24T06:04:23.707Z,0
2016-01-24T06:05:23.881Z,0
2016-01-24T06:06:23.790Z,0
2016-01-24T06:07:23.828Z,0
2016-01-24T06:08:23.786Z,0
2016-01-24T06:09:23.789Z,0
2016-01-24T06:10:23.838Z,0
2016-01-24T06:11:23.793Z,0
2016-01-24T06:12:23.781Z,0
2016-01-24T06:13:23.816Z,0
2016-01-24T06:14:23.756Z,0
2016-01-24T06:15:23.774Z,0
2016-01-24T06:16:23.730Z,0
2016-01-24T06:17:23.749Z,0
2016-01-24T06:18:23.722Z,0
2016-01-24T06:19:23.726Z,0
2016-01-24T06:20:23.823Z,0
2016-01-24T06:21:23.717Z,0
2016-01-24T06:22:23.689Z,0
2016-01-24T06:23:23.771Z,0
2016-01-24T06:24:23.758Z,0
2016-01-24T06:25:23.714Z,0
2016-01-24T06:26:23.514Z,0
2016-01-24T06:27:23.673Z,0
2016-01-24T06:28:23.663Z,0
2016-01-24T06:29:23.666Z,0
2016-01-24T06:30:23.684Z,0
2016-01-24T06:31:23.641Z,0
2016-01-24T06:32:23.645Z,0
2016-01-24T06:33:23.648Z,0
2016-01-24T06:34:23.650Z,0
2016-01-24T06:35:23.606Z,0
2016-01-24T06:36:23.629Z,0
2016-01-24T06:37:23.693Z,0
2016-01-24T06:38:23.591Z,0
2016-01-24T06:39:23.625Z,0
2016-01-24T06:40:23.658Z,0
2016-01-24T06:41:23.568Z,0
2016-01-24T06:42:23.557Z,0
2016-01-24T06:43:23.591Z,0
2016-01-24T06:44:23.547Z,0
2016-01-24T06:45:23.569Z,0
2016-01-24T06:46:23.605Z,0
2016-01-24T06:47:23.531Z,0
2016-01-24T06:48:23.627Z,0
2016-01-24T06:49:23.537Z,0
2016-01-24T06:50:23.526Z,0
2016-01-24T06:51:23.514Z,0
2016-01-24T06:52:23.520Z,0
2016-01-24T06:53:23.492Z,0
2016-01-24T06:54:23.526Z,0
2016-01-24T06:55:23.467Z,0
2016-01-24T06:56:23.487Z,0
2016-01-24T06:57:23.474Z,0
2016-01-24T06:58:23.461Z,0
2016-01-24T06:59:23.448Z,0
2016-01-24T07:00:23.452Z,0
2016-01-24T07:01:23.437Z,0
2016-01-24T07:02:23.439Z,0
2016-01-24T07:03:23.289Z,0
2016-01-24T07:04:23.421Z,0
2016-01-24T07:05:23.471Z,0
2016-01-24T07:06:23.428Z,0
2016-01-24T07:07:23.446Z,0
2016-01-24T07:08:23.260Z,0
2016-01-24T07:09:23.406Z,0
2016-01-24T07:10:23.364Z,0
2016-01-24T07:11:23.398Z,5
2016-01-24T07:12:23.369Z,5
2016-01-24T07:13:23.372Z,5
2016-01-24T07:14:23.360Z,5
2016-01-24T07:15:23.410Z,5
2016-01-24T07:16:23.350Z,5
2016-01-24T07:17:23.228Z,5
2016-01-24T07:18:23.365Z,5
2016-01-24T07:19:23.415Z,5
2016-01-24T07:20:23.324Z,5
2016-01-24T07:21:23.326Z,5
2016-01-24T07:22:23.314Z,5
2016-01-24T07:23:23.333Z,5
2016-01-24T07:24:23.305Z,5
2016-01-24T07:25:23.792Z,5
2016-01-24T07:26:23.279Z,10
2016-01-24T07:27:23.329Z,10
2016-01-24T07:28:23.270Z,10
2016-01-24T07:29:23.274Z,10
2016-01-24T07:30:23.246Z,10
2016-01-24T07:31:23.280Z,10
2016-01-24T07:32:23.345Z,10
2016-01-24T07:33:23.272Z,15
2016-01-24T07:34:23.261Z,15
2016-01-24T07:35:23.311Z,15
2016-01-24T07:36:23.204Z,15
2016-01-24T07:37:23.223Z,15
2016-01-24T07:38:23.213Z,20
2016-01-24T07:39:23.277Z,20
2016-01-24T07:40:23.187Z,20
2016-01-24T07:41:23.189Z,20
2016-01-24T07:42:23.506Z,20
2016-01-24T07:43:23.165Z,25
2016-01-24T07:44:23.184Z,25
2016-01-24T07:45:23.141Z,25
2016-01-24T07:46:23.174Z,25
2016-01-24T07:47:23.131Z,25
2016-01-24T07:48:23.159Z,25
2016-01-24T07:49:23.116Z,30
2016-01-24T07:50:23.212Z,30
2016-01-24T07:51:23.183Z,35
2016-01-24T07:52:23.204Z,35
2016-01-24T07:53:23.143Z,40
2016-01-24T07:54:23.101Z,40
2016-01-24T07:55:23.088Z,40
2016-01-24T07:56:23.075Z,45
2016-01-24T07:57:23.079Z,45
2016-01-24T07:58:23.116Z,45
2016-01-24T07:59:23.072Z,45
2016-01-24T08:00:23.137Z,50
2016-01-24T08:01:23.080Z,50
2016-01-24T08:02:23.053Z,55
2016-01-24T08:03:23.040Z,55
2016-01-24T08:04:23.074Z,60
2016-01-24T08:05:23.108Z,55
2016-01-24T08:06:23.019Z,55
2016-01-24T08:07:23.037Z,55
2016-01-24T08:08:23.044Z,50
2016-01-24T08:09:23.014Z,50
2016-01-24T08:10:23.049Z,45
2016-01-24T08:11:23.021Z,50
2016-01-24T08:12:23.056Z,50
2016-01-24T08:13:23.122Z,50
2016-01-24T08:14:23.063Z,50
2016-01-24T08:15:22.986Z,50
2016-01-24T08:16:22.989Z,50
2016-01-24T08:17:22.962Z,50
2016-01-24T08:18:22.980Z,50
2016-01-24T08:19:23.108Z,50
2016-01-24T08:20:22.939Z,50
2016-01-24T08:21:22.974Z,50
2016-01-24T08:22:22.947Z,50
2016-01-24T08:23:22.949Z,50
2016-01-24T08:24:22.953Z,50
2016-01-24T08:25:22.941Z,50
2016-01-24T08:26:22.975Z,50
2016-01-24T08:27:22.915Z,55
2016-01-24T08:28:23.027Z,55
2016-01-24T08:29:22.858Z,55
2016-01-24T08:30:23.002Z,55
2016-01-24T08:31:22.880Z,60
2016-01-24T08:32:22.883Z,60
2016-01-24T08:33:22.886Z,60
2016-01-24T08:34:22.889Z,65
2016-01-24T08:35:22.909Z,65
2016-01-24T08:36:22.975Z,65
2016-01-24T08:37:22.883Z,65
2016-01-24T08:38:22.949Z,65
2016-01-24T08:39:22.859Z,65
2016-01-24T08:40:22.881Z,65
2016-01-24T08:41:22.851Z,60
2016-01-24T08:42:22.825Z,60
2016-01-24T08:43:22.844Z,60
2016-01-24T08:44:22.690Z,60
2016-01-24T08:45:23.319Z,60
2016-01-24T08:46:22.822Z,60
2016-01-24T08:47:22.810Z,65
2016-01-24T08:48:22.876Z,65
2016-01-24T08:49:22.786Z,65
2016-01-24T08:50:22.805Z,65
2016-01-24T08:51:22.808Z,70
2016-01-24T08:52:22.794Z,70
2016-01-24T08:53:22.860Z,70
2016-01-24T08:54:22.879Z,70
2016-01-24T08:55:22.757Z,75
2016-01-24T08:56:22.776Z,75
2016-01-24T08:57:22.763Z,80
2016-01-24T08:58:22.766Z,80
2016-01-24T08:59:22.755Z,85
2016-01-24T09:00:22.774Z,85
2016-01-24T09:01:22.777Z,90
2016-01-24T09:02:22.812Z,90
2016-01-24T09:03:22.735Z,90
2016-01-24T09:04:22.754Z,90
2016-01-24T09:05:22.742Z,90
2016-01-24T09:06:22.745Z,90
2016-01-24T09:07:22.732Z,90
2016-01-24T09:08:22.735Z,90
2016-01-24T09:09:22.739Z,90
2016-01-24T09:10:22.775Z,85
2016-01-24T09:11:22.716Z,85
2016-01-24T09:12:22.703Z,85
2016-01-24T09:13:22.736Z,80
2016-01-24T09:14:22.771Z,80
2016-01-24T09:15:22.789Z,80
2016-01-24T09:16:22.714Z,75
2016-01-24T09:17:22.689Z,75
2016-01-24T09:18:22.957Z,70
2016-01-24T09:19:22.667Z,70
2016-01-24T09:20:22.546Z,70
2016-01-24T09:21:22.673Z,70
2016-01-24T09:22:22.722Z,70
2016-01-24T09:23:22.664Z,75
2016-01-24T09:24:22.732Z,80
2016-01-24T09:25:22.735Z,85
2016-01-24T09:26:22.706Z,90
2016-01-24T09:27:22.663Z,95
2016-01-24T09:28:22.681Z,100
2016-01-24T09:29:22.716Z,100
2016-01-24T09:30:22.656Z,100
2016-01-24T09:31:22.643Z,100
2016-01-24T09:32:22.662Z,105
2016-01-24T09:33:22.635Z,105
2016-01-24T09:34:22.637Z,105
2016-01-24T09:35:22.656Z,105
2016-01-24T09:36:22.596Z,105
2016-01-24T09:37:22.587Z,105
2016-01-24T09:38:22.668Z,105
2016-01-24T09:39:22.594Z,105
2016-01-24T09:40:22.581Z,105
2016-01-24T09:41:22.676Z,105
2016-01-24T09:42:22.963Z,105
2016-01-24T09:43:22.560Z,105
2016-01-24T09:44:22.578Z,100
2016-01-24T09:45:22.550Z,105
2016-01-24T09:46:22.568Z,105
2016-01-24T09:47:22.581Z,105
2016-01-24T09:48:22.584Z,105
2016-01-24T09:49:22.651Z,105
2016-01-24T09:50:22.590Z,110
2016-01-24T09:51:22.531Z,110
2016-01-24T09:52:22.518Z,115
2016-01-24T09:53:22.616Z,115
2016-01-24T09:54:22.540Z,120
2016-01-24T09:55:22.558Z,125
2016-01-24T09:56:22.536Z,130
2016-01-24T09:57:22.507Z,135
2016-01-24T09:58:22.635Z,140
2016-01-24T09:59:22.513Z,145
2016-01-24T10:00:22.516Z,150
2016-01-24T10:01:22.519Z,150
2016-01-24T10:02:22.523Z,150
2016-01-24T10:03:22.589Z,150
2016-01-24T10:04:22.530Z,150
2016-01-24T10:05:22.564Z,145
2016-01-24T10:06:22.490Z,145
2016-01-24T10:07:22.493Z,140
2016-01-24T10:08:22.496Z,140
2016-01-24T10:09:22.468Z,140
2016-01-24T10:10:22.470Z,140
2016-01-24T10:11:22.457Z,140
2016-01-24T10:12:22.442Z,140
2016-01-24T10:13:22.464Z,145
2016-01-24T10:14:22.434Z,145
2016-01-24T10:15:22.453Z,145
2016-01-24T10:16:22.521Z,150
2016-01-24T10:17:22.525Z,155
2016-01-24T10:18:22.447Z,150
2016-01-24T10:19:22.450Z,150
2016-01-24T10:20:22.473Z,150
2016-01-24T10:21:22.414Z,155
2016-01-24T10:22:22.426Z,155
2016-01-24T10:23:22.402Z,155
2016-01-24T10:24:22.379Z,155
2016-01-24T10:25:22.402Z,150
2016-01-24T10:26:22.347Z,150
2016-01-24T10:27:22.347Z,150
2016-01-24T10:28:22.329Z,150
2016-01-24T10:29:22.314Z,155
2016-01-24T10:30:22.438Z,160
2016-01-24T10:31:22.374Z,170
2016-01-24T10:32:22.329Z,170
2016-01-24T10:33:22.316Z,175
2016-01-24T10:34:22.334Z,175
2016-01-24T10:35:22.319Z,170
2016-01-24T10:36:22.307Z,170
2016-01-24T10:37:22.309Z,170
2016-01-24T10:38:22.295Z,170
2016-01-24T10:39:22.298Z,170
2016-01-24T10:40:22.319Z,170
2016-01-24T10:41:22.336Z,165
2016-01-24T10:42:22.279Z,155
2016-01-24T10:43:22.265Z,150
2016-01-24T10:44:22.283Z,150
2016-01-24T10:45:22.269Z,150
2016-01-24T10:46:22.257Z,155
2016-01-24T10:47:22.292Z,155
2016-01-24T10:48:22.265Z,160
2016-01-24T10:49:22.269Z,160
2016-01-24T10:50:22.164Z,160
2016-01-24T10:51:22.324Z,170
2016-01-24T10:52:22.266Z,175
2016-01-24T10:53:22.316Z,165
2016-01-24T10:54:22.271Z,160
2016-01-24T10:55:22.244Z,160
2016-01-24T10:56:22.279Z,155
2016-01-24T10:57:22.313Z,155
2016-01-24T10:58:22.284Z,160
2016-01-24T10:59:22.290Z,160
2016-01-24T11:00:22.356Z,170
2016-01-24T11:01:22.217Z,165
2016-01-24T11:02:22.236Z,165
2016-01-24T11:03:22.223Z,160
2016-01-24T11:04:22.242Z,160
2016-01-24T11:05:22.230Z,160
2016-01-24T11:06:22.204Z,160
2016-01-24T11:07:22.644Z,160
2016-01-24T11:08:22.209Z,160
2016-01-24T11:09:22.212Z,160
2016-01-24T11:10:22.217Z,160
2016-01-24T11:11:22.250Z,155
2016-01-24T11:12:22.238Z,150
2016-01-24T11:13:22.194Z,150
2016-01-24T11:14:22.180Z,150
2016-01-24T11:15:22.325Z,150
2016-01-24T11:16:22.219Z,155
2016-01-24T11:17:22.206Z,155
2016-01-24T11:18:22.287Z,155
2016-01-24T11:19:22.189Z,155
2016-01-24T11:20:22.254Z,155
2016-01-24T11:21:22.194Z,155
2016-01-24T11:22:22.181Z,155
2016-01-24T11:23:22.203Z,155
2016-01-24T11:24:22.191Z,155
2016-01-24T11:25:22.226Z,155
2016-01-24T11:26:22.181Z,150
2016-01-24T11:27:22.168Z,150
2016-01-24T11:28:22.218Z,160
2016-01-24T11:29:22.159Z,155
2016-01-24T11:30:22.242Z,155
2016-01-24T11:31:22.198Z,155
2016-01-24T11:32:22.154Z,160
2016-01-24T11:33:22.157Z,155
2016-01-24T11:34:22.160Z,150
2016-01-24T11:35:22.179Z,150
2016-01-24T11:36:21.995Z,150
2016-01-24T11:37:22.169Z,150
2016-01-24T11:38:22.175Z,155
2016-01-24T11:39:22.162Z,155
2016-01-24T11:40:22.181Z,160
2016-01-24T11:41:22.168Z,165
2016-01-24T11:42:22.514Z,165
2016-01-24T11:43:22.128Z,165
2016-01-24T11:44:22.131Z,165
2016-01-24T11:45:22.134Z,165
2016-01-24T11:46:22.168Z,160
2016-01-24T11:47:22.139Z,160
2016-01-24T11:48:22.129Z,155
2016-01-24T11:49:22.139Z,150
2016-01-24T11:50:22.189Z,150
2016-01-24T11:51:21.973Z,145
2016-01-24T11:52:22.163Z,145
2016-01-24T11:53:22.119Z,150
2016-01-24T11:54:22.107Z,155
2016-01-24T11:55:22.235Z,155
2016-01-24T11:56:22.113Z,155
2016-01-24T11:57:22.099Z,160
2016-01-24T11:58:22.134Z,160
2016-01-24T11:59:22.137Z,160
2016-01-24T12:00:22.203Z,160
2016-01-24T12:01:22.128Z,160
2016-01-24T12:02:22.132Z,160
2016-01-24T12:03:22.135Z,160
2016-01-24T12:04:25.107Z,160
2016-01-24T12:05:22.141Z,155
2016-01-24T12:06:22.190Z,150
2016-01-24T12:07:22.100Z,150
2016-01-24T12:08:22.104Z,145
2016-01-24T12:09:22.138Z,145
2016-01-24T12:10:22.140Z,145
2016-01-24T12:11:22.081Z,145
2016-01-24T12:12:22.116Z,145
2016-01-24T12:13:22.087Z,145
2016-01-24T12:14:22.154Z,145
2016-01-24T12:15:22.188Z,145
2016-01-24T12:16:22.082Z,145
2016-01-24T12:17:22.124Z,145
2016-01-24T12:18:22.111Z,140
2016-01-24T12:19:22.064Z,140
2016-01-24T12:20:22.115Z,145
2016-01-24T12:21:22.086Z,145
2016-01-24T12:22:22.171Z,145
2016-01-24T12:23:22.079Z,145
2016-01-24T12:24:22.053Z,150
2016-01-24T12:25:22.384Z,150
2016-01-24T12:26:22.106Z,145
2016-01-24T12:27:22.062Z,145
2016-01-24T12:28:22.067Z,145
2016-01-24T12:29:22.070Z,145
2016-01-24T12:30:22.119Z,140
2016-01-24T12:31:22.060Z,140
2016-01-24T12:32:22.062Z,135
2016-01-24T12:33:22.097Z,130
2016-01-24T12:34:22.600Z,130
2016-01-24T12:35:22.118Z,125
2016-01-24T12:36:22.043Z,125
2016-01-24T12:37:22.048Z,125
2016-01-24T12:38:22.067Z,125
2016-01-24T12:39:22.055Z,125
2016-01-24T12:40:22.088Z,125
2016-01-24T12:41:22.077Z,125
2016-01-24T12:42:22.033Z,130
2016-01-24T12:43:22.021Z,130
2016-01-24T12:44:22.133Z,135
2016-01-24T12:45:22.073Z,140
2016-01-24T12:46:22.137Z,140
2016-01-24T12:47:22.329Z,145
2016-01-24T12:48:22.066Z,145
2016-01-24T12:49:22.022Z,145
2016-01-24T12:50:22.447Z,145
2016-01-24T12:51:22.030Z,145
2016-01-24T12:52:22.064Z,145
2016-01-24T12:53:22.084Z,135
2016-01-24T12:54:22.023Z,135
2016-01-24T12:55:22.026Z,125
2016-01-24T12:56:22.029Z,115
2016-01-24T12:57:22.079Z,110
2016-01-24T12:58:22.082Z,105
2016-01-24T12:59:22.026Z,105
2016-01-24T13:00:22.043Z,105
2016-01-24T13:01:22.031Z,105
2016-01-24T13:02:22.019Z,110
2016-01-24T13:03:22.007Z,110
2016-01-24T13:04:22.010Z,115
2016-01-24T13:05:22.060Z,115
2016-01-24T13:06:22.034Z,115
2016-01-24T13:07:22.008Z,115
2016-01-24T13:08:22.011Z,115
2016-01-24T13:09:21.982Z,115
2016-01-24T13:10:22.032Z,115
2016-01-24T13:11:22.035Z,110
2016-01-24T13:12:21.992Z,105
2016-01-24T13:13:21.980Z,105
2016-01-24T13:14:21.983Z,105
2016-01-24T13:15:22.017Z,105
2016-01-24T13:16:21.989Z,105
2016-01-24T13:17:22.013Z,105
2016-01-24T13:18:22.204Z,105
2016-01-24T13:19:22.034Z,105
2016-01-24T13:20:22.052Z,105
2016-01-24T13:21:21.992Z,105
2016-01-24T13:22:21.982Z,110
2016-01-24T13:23:21.984Z,115
2016-01-24T13:24:21.987Z,115
2016-01-24T13:25:21.958Z,120
2016-01-24T13:26:22.041Z,120
2016-01-24T13:27:21.997Z,120
2016-01-24T13:28:22.031Z,125
2016-01-24T13:29:21.972Z,125
2016-01-24T13:30:21.974Z,130
2016-01-24T13:31:21.947Z,130
2016-01-24T13:32:21.950Z,130
2016-01-24T13:33:21.968Z,130
2016-01-24T13:34:21.878Z,130
2016-01-24T13:35:22.006Z,130
2016-01-24T13:36:21.979Z,130
2016-01-24T13:37:21.935Z,130
2016-01-24T13:38:21.940Z,135
2016-01-24T13:39:21.975Z,135
2016-01-24T13:40:21.821Z,135
2016-01-24T13:41:21.935Z,135
2016-01-24T13:42:21.939Z,130
2016-01-24T13:43:21.987Z,130
2016-01-24T13:44:21.990Z,130
2016-01-24T13:45:21.963Z,125
2016-01-24T13:46:21.919Z,125
2016-01-24T13:47:21.938Z,120
2016-01-24T13:48:21.925Z,115
2016-01-24T13:49:21.927Z,110
2016-01-24T13:50:21.977Z,110
2016-01-24T13:51:22.107Z,105
2016-01-24T13:52:21.923Z,105
2016-01-24T13:53:21.940Z,110
2016-01-24T13:54:21.912Z,110
2016-01-24T13:55:22.009Z,110
2016-01-24T13:56:21.949Z,110
2016-01-24T13:57:22.125Z,115
2016-01-24T13:58:21.971Z,115
2016-01-24T13:59:21.911Z,120
2016-01-24T14:00:22.024Z,120
2016-01-24T14:01:21.968Z,125
2016-01-24T14:02:21.908Z,125
2016-01-24T14:03:21.818Z,125
2016-01-24T14:04:21.915Z,130
2016-01-24T14:05:21.964Z,125
2016-01-24T14:06:21.875Z,125
2016-01-24T14:07:21.909Z,120
2016-01-24T14:08:21.896Z,120
2016-01-24T14:09:21.962Z,120
2016-01-24T14:10:21.981Z,120
2016-01-24T14:11:21.878Z,120
2016-01-24T14:12:21.724Z,120
2016-01-24T14:13:21.882Z,120
2016-01-24T14:14:21.885Z,115
2016-01-24T14:15:21.919Z,115
2016-01-24T14:16:21.892Z,110
2016-01-24T14:17:21.882Z,105
2016-01-24T14:18:21.915Z,100
2016-01-24T14:19:21.887Z,100
2016-01-24T14:20:21.986Z,95
2016-01-24T14:21:21.864Z,95
2016-01-24T14:22:21.882Z,90
2016-01-24T14:23:21.853Z,85
2016-01-24T14:24:21.887Z,85
2016-01-24T14:25:21.938Z,85
2016-01-24T14:26:22.241Z,85
2016-01-24T14:27:21.870Z,90
2016-01-24T14:28:21.872Z,90
2016-01-24T14:29:21.860Z,90
2016-01-24T14:30:21.881Z,95
2016-01-24T14:31:21.868Z,90